createdAt,value
2022-09-07T00:01:07.888Z,20.14
2022-09-07T00:03:34.436Z,20.19
2022-09-07T00:06:00.975Z,20.16
2022-09-07T00:08:27.489Z,20.16
2022-09-07T00:10:54.127Z,20.15
2022-09-07T00:13:20.561Z,20.13
2022-09-07T00:15:47.007Z,20.13
2022-09-07T00:18:13.488Z,20.13
2022-09-07T00:20:39.944Z,20.12
2022-09-07T00:23:06.457Z,20.09
2022-09-07T00:25:32.887Z,20.02
2022-09-07T00:27:59.359Z,20.02
2022-09-07T00:30:25.810Z,20.03
2022-09-07T00:32:52.239Z,20.03
2022-09-07T00:35:18.696Z,20.04
2022-09-07T00:37:45.132Z,20.03
2022-09-07T00:40:11.674Z,20.08
2022-09-07T00:42:38.144Z,20.09
2022-09-07T00:45:04.636Z,20.02
2022-09-07T00:47:31.068Z,20.04
2022-09-07T00:49:57.543Z,19.99
2022-09-07T00:52:24.001Z,20.00
2022-09-07T00:54:50.455Z,20.04
2022-09-07T00:57:16.911Z,20.01
2022-09-07T00:59:43.331Z,19.99
2022-09-07T01:02:09.956Z,19.99
2022-09-07T01:04:36.496Z,20.03
2022-09-07T01:07:02.947Z,20.01
2022-09-07T01:09:29.386Z,20.02
2022-09-07T01:11:55.819Z,20.02
2022-09-07T01:14:22.253Z,20.03
2022-09-07T01:16:48.705Z,19.93
2022-09-07T01:19:16.015Z,19.90
2022-09-07T01:21:42.498Z,19.83
2022-09-07T01:24:08.959Z,19.88
2022-09-07T01:26:35.378Z,19.85
2022-09-07T01:29:01.854Z,19.87
2022-09-07T01:31:28.383Z,19.88
2022-09-07T01:33:54.927Z,19.76
2022-09-07T01:36:21.387Z,19.78
2022-09-07T01:38:47.846Z,19.76
2022-09-07T01:41:15.152Z,19.67
2022-09-07T01:43:41.653Z,19.64
2022-09-07T01:46:08.117Z,19.70
2022-09-07T01:48:34.607Z,19.80
2022-09-07T01:51:01.066Z,19.87
2022-09-07T01:53:27.500Z,19.81
2022-09-07T01:55:53.956Z,19.78
2022-09-07T01:58:20.400Z,19.81
2022-09-07T02:00:46.868Z,19.82
2022-09-07T02:03:13.296Z,19.78
2022-09-07T02:05:39.785Z,19.70
2022-09-07T02:08:06.250Z,19.70
2022-09-07T02:10:32.687Z,19.73
2022-09-07T02:12:59.153Z,19.77
2022-09-07T02:15:25.608Z,19.80
2022-09-07T02:17:52.089Z,19.76
2022-09-07T02:20:18.532Z,19.75
2022-09-07T02:22:44.968Z,19.77
2022-09-07T02:25:11.416Z,19.77
2022-09-07T02:27:37.851Z,19.74
2022-09-07T02:30:04.311Z,19.74
2022-09-07T02:32:30.744Z,19.75
2022-09-07T02:34:57.185Z,19.73
2022-09-07T02:37:23.699Z,19.68
2022-09-07T02:39:50.214Z,19.66
2022-09-07T02:42:17.566Z,19.66
2022-09-07T02:44:44.012Z,19.55
2022-09-07T02:47:10.407Z,19.48
2022-09-07T02:49:36.793Z,19.55
2022-09-07T02:52:03.164Z,19.60
2022-09-07T02:54:29.557Z,19.59
2022-09-07T02:56:55.923Z,19.63
2022-09-07T02:59:22.365Z,19.62
2022-09-07T03:01:48.809Z,19.57
2022-09-07T03:04:15.252Z,19.48
2022-09-07T03:06:41.640Z,19.47
2022-09-07T03:09:08.889Z,19.44
2022-09-07T03:11:35.284Z,19.33
2022-09-07T03:14:01.639Z,19.30
2022-09-07T03:16:28.014Z,19.32
2022-09-07T03:18:54.404Z,19.30
2022-09-07T03:21:20.854Z,19.25
2022-09-07T03:23:51.592Z,19.32
2022-09-07T03:26:18.275Z,19.40
2022-09-07T03:28:44.656Z,19.39
2022-09-07T03:31:11.047Z,19.37
2022-09-07T03:33:37.491Z,19.41
2022-09-07T03:36:03.845Z,19.45
2022-09-07T03:38:30.477Z,19.46
2022-09-07T03:40:57.015Z,19.52
2022-09-07T03:43:23.376Z,19.46
2022-09-07T03:45:49.771Z,19.51
2022-09-07T03:48:16.162Z,19.40
2022-09-07T03:50:42.537Z,19.38
2022-09-07T03:53:09.806Z,19.30
2022-09-07T03:55:36.216Z,19.29
2022-09-07T03:58:02.606Z,19.30
2022-09-07T04:00:29.001Z,19.27
2022-09-07T04:02:58.244Z,19.29
2022-09-07T04:05:24.650Z,19.31
2022-09-07T04:07:51.027Z,19.22
2022-09-07T04:10:17.523Z,19.20
2022-09-07T04:12:44.788Z,19.17
2022-09-07T04:15:12.039Z,19.24
2022-09-07T04:17:38.419Z,19.19
2022-09-07T04:20:04.865Z,19.22
2022-09-07T04:22:31.324Z,19.22
2022-09-07T04:24:57.733Z,19.17
2022-09-07T04:27:24.146Z,19.14
2022-09-07T04:29:51.436Z,19.20
2022-09-07T04:32:17.847Z,19.22
2022-09-07T04:34:44.289Z,19.24
2022-09-07T04:37:12.549Z,19.21
2022-09-07T04:39:39.008Z,19.25
2022-09-07T04:42:05.487Z,19.26
2022-09-07T04:44:31.870Z,19.20
2022-09-07T04:46:58.269Z,19.09
2022-09-07T04:49:26.605Z,19.05
2022-09-07T04:51:53.041Z,18.97
2022-09-07T04:54:19.545Z,18.94
2022-09-07T04:56:46.047Z,18.90
2022-09-07T04:59:12.420Z,18.90
2022-09-07T05:01:40.919Z,18.91
2022-09-07T05:04:10.132Z,18.94
2022-09-07T05:06:36.584Z,18.96
2022-09-07T05:09:03.885Z,18.98
2022-09-07T05:11:30.434Z,18.97
2022-09-07T05:13:57.721Z,18.97
2022-09-07T05:16:24.339Z,18.96
2022-09-07T05:18:50.826Z,18.99
2022-09-07T05:21:17.284Z,19.05
2022-09-07T05:23:45.597Z,19.09
2022-09-07T05:26:12.894Z,19.12
2022-09-07T05:28:39.397Z,19.17
2022-09-07T05:31:21.187Z,19.18
2022-09-07T05:36:34.097Z,19.17
2022-09-07T05:39:01.554Z,19.17
2022-09-07T05:41:28.074Z,19.12
2022-09-07T05:46:41.011Z,19.27
2022-09-07T05:49:10.578Z,19.24
2022-09-07T05:51:36.928Z,19.17
2022-09-07T05:54:03.499Z,19.13
2022-09-07T05:56:30.145Z,19.17
2022-09-07T05:58:56.877Z,19.15
2022-09-07T06:01:23.662Z,19.24
2022-09-07T06:03:50.109Z,19.28
2022-09-07T06:06:16.640Z,19.29
2022-09-07T06:08:45.821Z,19.33
2022-09-07T06:11:15.019Z,19.35
2022-09-07T06:13:41.479Z,19.29
2022-09-07T06:16:09.856Z,19.35
2022-09-07T06:18:36.357Z,19.29
2022-09-07T06:21:05.576Z,19.31
2022-09-07T06:23:32.241Z,19.35
2022-09-07T06:26:01.470Z,19.39
2022-09-07T06:28:30.747Z,19.39
2022-09-07T06:30:57.189Z,19.32
2022-09-07T06:33:23.635Z,19.21
2022-09-07T06:35:52.842Z,19.27
2022-09-07T06:38:20.102Z,19.15
2022-09-07T06:40:46.605Z,19.16
2022-09-07T06:43:15.809Z,19.23
2022-09-07T06:45:44.150Z,19.26
2022-09-07T06:48:10.551Z,19.20
2022-09-07T06:50:36.938Z,19.15
2022-09-07T06:55:50.665Z,19.32
2022-09-07T06:58:17.070Z,19.39
2022-09-07T07:00:45.404Z,19.47
2022-09-07T07:03:12.902Z,19.52
2022-09-07T07:05:39.384Z,19.60
2022-09-07T07:08:05.878Z,19.67
2022-09-07T07:10:32.263Z,19.71
2022-09-07T07:12:58.877Z,19.75
2022-09-07T07:15:25.374Z,19.77
2022-09-07T07:17:58.374Z,19.73
2022-09-07T07:20:26.959Z,19.78
2022-09-07T07:22:53.342Z,19.81
2022-09-07T07:25:20.589Z,19.89
2022-09-07T07:27:46.947Z,19.92
2022-09-07T07:30:13.353Z,19.94
2022-09-07T07:32:39.785Z,20.00
2022-09-07T07:35:06.138Z,20.07
2022-09-07T07:37:32.454Z,20.10
2022-09-07T07:42:40.476Z,20.15
2022-09-07T07:47:53.210Z,20.14
2022-09-07T07:50:35.080Z,20.20
2022-09-07T07:55:47.799Z,20.20
2022-09-07T07:58:15.038Z,20.24
2022-09-07T08:00:54.167Z,20.22
2022-09-07T08:03:21.647Z,20.20
2022-09-07T08:05:47.976Z,20.20
2022-09-07T08:08:14.288Z,20.23
2022-09-07T08:10:40.602Z,20.28
2022-09-07T08:13:06.968Z,20.20
2022-09-07T08:15:33.298Z,20.19
2022-09-07T08:17:59.622Z,20.19
2022-09-07T08:20:25.973Z,20.21
2022-09-07T08:22:52.367Z,20.21
2022-09-07T08:25:18.688Z,20.21
2022-09-07T08:27:45.001Z,20.23
2022-09-07T08:30:11.362Z,20.22
2022-09-07T08:32:37.707Z,20.22
2022-09-07T08:35:04.042Z,20.19
2022-09-07T08:37:30.386Z,20.14
2022-09-07T08:39:56.804Z,20.14
2022-09-07T08:42:23.145Z,20.14
2022-09-07T08:44:49.463Z,20.12
2022-09-07T08:47:15.784Z,20.09
2022-09-07T08:49:42.101Z,20.08
2022-09-07T08:52:08.446Z,20.02
2022-09-07T08:54:34.751Z,19.98
2022-09-07T08:59:50.143Z,20.05
2022-09-07T09:02:40.226Z,20.07
2022-09-07T09:05:21.207Z,20.04
2022-09-07T09:07:47.676Z,20.03
2022-09-07T09:10:13.986Z,20.01
2022-09-07T09:12:40.280Z,20.04
2022-09-07T09:15:06.601Z,20.06
2022-09-07T09:17:35.716Z,20.07
2022-09-07T09:20:04.893Z,20.06
2022-09-07T09:22:33.975Z,20.08
2022-09-07T09:25:00.263Z,20.10
2022-09-07T09:27:26.554Z,20.08
2022-09-07T09:29:52.842Z,20.06
2022-09-07T09:32:19.163Z,20.02
2022-09-07T09:34:45.459Z,19.95
2022-09-07T09:37:11.807Z,20.00
2022-09-07T09:39:38.203Z,20.03
2022-09-07T09:42:07.441Z,20.06
2022-09-07T09:44:36.544Z,20.10
2022-09-07T09:49:54.734Z,20.05
2022-09-07T09:52:33.807Z,20.06
2022-09-07T09:55:33.255Z,20.07
2022-09-07T10:06:19.102Z,20.02
2022-09-07T10:08:48.238Z,20.06
2022-09-07T10:11:14.547Z,20.09
2022-09-07T10:13:43.637Z,20.10
2022-09-07T10:16:10.067Z,20.10
2022-09-07T10:18:39.255Z,20.06
2022-09-07T10:21:05.575Z,20.10
2022-09-07T10:23:34.668Z,20.11
2022-09-07T10:26:03.785Z,20.12
2022-09-07T10:31:19.352Z,20.13
2022-09-07T10:36:37.625Z,20.10
2022-09-07T10:39:03.944Z,20.11
2022-09-07T10:41:33.040Z,20.15
2022-09-07T10:44:02.832Z,20.21
2022-09-07T10:49:21.119Z,20.14
2022-09-07T10:51:50.247Z,20.21
2022-09-07T10:54:32.228Z,20.22
2022-09-07T10:57:01.669Z,20.28
2022-09-07T11:00:07.531Z,20.31
2022-09-07T11:02:17.148Z,20.33
2022-09-07T11:04:46.238Z,20.32
2022-09-07T11:07:15.495Z,20.33
2022-09-07T11:09:44.951Z,20.36
2022-09-07T11:12:14.059Z,20.39
2022-09-07T11:14:43.197Z,20.42
2022-09-07T11:17:09.530Z,20.44
2022-09-07T11:19:36.969Z,20.48
2022-09-07T11:22:06.720Z,20.49
2022-09-07T11:24:33.004Z,20.49
2022-09-07T11:26:59.318Z,20.51
2022-09-07T11:29:32.685Z,20.52
2022-09-07T11:32:01.910Z,20.54
2022-09-07T11:34:30.996Z,20.57
2022-09-07T11:36:57.321Z,20.59
2022-09-07T11:39:23.682Z,20.58
2022-09-07T11:41:49.974Z,20.59
2022-09-07T11:44:16.331Z,20.63
2022-09-07T11:46:45.544Z,20.66
2022-09-07T11:49:11.946Z,20.67
2022-09-07T11:51:38.273Z,20.68
2022-09-07T11:54:04.697Z,20.65
2022-09-07T11:56:36.207Z,20.65
2022-09-07T11:59:02.860Z,20.65
2022-09-07T12:01:29.204Z,20.70
2022-09-07T12:03:55.646Z,20.71
2022-09-07T12:06:24.903Z,20.75
2022-09-07T12:08:51.192Z,20.74
2022-09-07T12:11:22.607Z,20.71
2022-09-07T12:13:49.588Z,20.69
2022-09-07T12:16:15.970Z,20.67
2022-09-07T12:18:42.294Z,20.69
2022-09-07T12:21:08.663Z,20.68
2022-09-07T12:23:37.840Z,20.69
2022-09-07T12:26:04.178Z,20.68
2022-09-07T12:28:33.394Z,20.67
2022-09-07T12:31:02.620Z,20.65
2022-09-07T12:33:28.991Z,20.64
2022-09-07T12:35:55.291Z,20.65
2022-09-07T12:38:21.590Z,20.64
2022-09-07T12:40:50.763Z,20.64
2022-09-07T12:43:17.066Z,20.62
2022-09-07T12:45:46.291Z,20.61
2022-09-07T12:48:12.677Z,20.62
2022-09-07T12:50:40.226Z,20.61
2022-09-07T12:53:06.863Z,20.62
2022-09-07T12:56:15.610Z,20.61
2022-09-07T12:58:25.058Z,20.59
2022-09-07T13:00:51.351Z,20.58
2022-09-07T13:06:03.967Z,20.60
2022-09-07T13:08:30.306Z,20.57
2022-09-07T13:10:56.622Z,20.58
2022-09-07T13:16:12.103Z,20.59
2022-09-07T13:18:41.269Z,20.59
2022-09-07T13:21:10.373Z,20.60
2022-09-07T13:23:37.681Z,20.60
2022-09-07T13:26:07.064Z,20.59
2022-09-07T13:28:36.179Z,20.58
2022-09-07T13:31:05.439Z,20.56
2022-09-07T13:33:31.953Z,20.56
2022-09-07T13:36:01.224Z,20.56
2022-09-07T13:38:30.338Z,20.58
2022-09-07T13:40:59.425Z,20.59
2022-09-07T13:43:28.581Z,20.56
2022-09-07T13:45:55.023Z,20.56
2022-09-07T13:48:24.173Z,20.54
2022-09-07T13:50:53.264Z,20.55
2022-09-07T13:53:19.590Z,20.56
2022-09-07T13:55:48.724Z,20.54
2022-09-07T13:58:15.110Z,20.56
2022-09-07T14:00:44.201Z,20.55
2022-09-07T14:03:13.310Z,20.57
2022-09-07T14:05:42.405Z,20.57
2022-09-07T14:08:08.702Z,20.56
2022-09-07T14:10:35.018Z,20.54
2022-09-07T14:13:01.341Z,20.53
2022-09-07T14:15:30.423Z,20.56
2022-09-07T14:17:59.498Z,20.55
2022-09-07T14:20:25.799Z,20.58
2022-09-07T14:22:54.928Z,20.58
2022-09-07T14:25:24.088Z,20.56
2022-09-07T14:27:53.195Z,20.54
2022-09-07T14:30:22.274Z,20.56
2022-09-07T14:32:48.621Z,20.57
2022-09-07T14:35:14.913Z,20.57
2022-09-07T14:37:44.031Z,20.61
2022-09-07T14:40:10.349Z,20.62
2022-09-07T14:42:39.524Z,20.60
2022-09-07T14:45:06.636Z,20.58
2022-09-07T14:47:35.832Z,20.56
2022-09-07T14:50:02.137Z,20.57
2022-09-07T14:52:28.469Z,20.62
2022-09-07T14:54:54.795Z,20.64
2022-09-07T14:57:21.120Z,20.66
2022-09-07T14:59:47.460Z,20.68
2022-09-07T15:02:13.807Z,20.69
2022-09-07T15:04:40.275Z,21.01
2022-09-07T15:07:06.609Z,22.28
2022-09-07T15:09:32.990Z,21.68
2022-09-07T15:11:59.299Z,22.36
2022-09-07T15:14:25.611Z,22.95
2022-09-07T15:17:42.594Z,23.10
2022-09-07T15:19:41.071Z,22.79
2022-09-07T15:22:07.403Z,23.23
2022-09-07T15:24:33.740Z,22.86
2022-09-07T15:27:03.371Z,22.85
2022-09-07T15:29:30.437Z,22.03
2022-09-07T15:32:04.322Z,21.93
2022-09-07T15:34:31.527Z,22.66
2022-09-07T15:37:01.292Z,22.47
2022-09-07T15:39:30.701Z,22.85
2022-09-07T15:41:57.701Z,23.06
2022-09-07T15:44:28.450Z,22.80
2022-09-07T15:49:50.073Z,23.31
2022-09-07T15:52:17.624Z,22.64
2022-09-07T15:54:43.993Z,22.96
2022-09-07T15:59:56.803Z,21.38
2022-09-07T16:05:09.526Z,21.17
2022-09-07T16:10:25.086Z,21.05
2022-09-07T16:15:37.869Z,20.97
2022-09-07T16:18:04.445Z,20.89
2022-09-07T16:20:32.226Z,20.83
2022-09-07T16:23:15.148Z,20.85
2022-09-07T16:25:42.063Z,20.93
2022-09-07T16:28:09.525Z,20.93
2022-09-07T16:30:35.872Z,20.94
2022-09-07T16:33:03.111Z,20.92
2022-09-07T16:35:29.533Z,20.90
2022-09-07T16:40:42.157Z,20.85
2022-09-07T16:43:08.856Z,20.80
2022-09-07T16:48:22.642Z,20.79
2022-09-07T16:50:49.006Z,20.75
2022-09-07T16:53:15.313Z,20.95
2022-09-07T16:55:41.634Z,21.33
2022-09-07T17:00:54.303Z,21.28
2022-09-07T17:03:20.656Z,21.35
2022-09-07T17:05:47.154Z,21.70
2022-09-07T17:08:13.536Z,21.62
2022-09-07T17:10:39.868Z,21.79
2022-09-07T17:13:09.292Z,21.79
2022-09-07T17:15:35.912Z,21.70
2022-09-07T17:18:02.213Z,21.73
2022-09-07T17:20:28.551Z,21.74
2022-09-07T17:22:54.880Z,22.34
2022-09-07T17:25:21.213Z,22.02
2022-09-07T17:27:47.497Z,21.98
2022-09-07T17:30:14.680Z,22.39
2022-09-07T17:32:41.029Z,22.43
2022-09-07T17:35:07.422Z,21.90
2022-09-07T17:37:34.660Z,22.33
2022-09-07T17:40:03.416Z,22.90
2022-09-07T17:45:17.889Z,22.18
2022-09-07T17:47:44.214Z,21.93
2022-09-07T17:50:10.514Z,21.85
2022-09-07T17:52:40.310Z,21.84
2022-09-07T17:55:07.563Z,21.95
2022-09-07T17:57:33.884Z,21.93
2022-09-07T18:00:15.589Z,21.24
2022-09-07T18:02:42.109Z,20.95
2022-09-07T18:05:09.355Z,20.90
2022-09-07T18:07:35.701Z,20.87
2022-09-07T18:10:02.050Z,20.97
2022-09-07T18:12:28.395Z,20.95
2022-09-07T18:14:54.738Z,20.87
2022-09-07T18:17:21.078Z,20.85
2022-09-07T18:19:47.444Z,20.94
2022-09-07T18:22:15.212Z,21.07
2022-09-07T18:24:41.689Z,21.10
2022-09-07T18:27:08.039Z,20.84
2022-09-07T18:29:34.741Z,20.77
2022-09-07T18:32:01.308Z,20.79
2022-09-07T18:34:27.805Z,20.82
2022-09-07T18:36:55.169Z,20.76
2022-09-07T18:39:21.727Z,20.71
2022-09-07T18:41:48.130Z,20.76
2022-09-07T18:47:01.002Z,20.76
2022-09-07T18:49:27.462Z,20.71
2022-09-07T18:54:40.437Z,20.78
2022-09-07T18:57:07.096Z,20.70
2022-09-07T18:59:33.600Z,20.66
2022-09-07T19:02:03.978Z,20.60
2022-09-07T19:07:17.299Z,20.55
2022-09-07T19:09:43.635Z,20.53
2022-09-07T19:12:10.159Z,20.53
2022-09-07T19:14:36.642Z,20.63
2022-09-07T19:17:03.017Z,20.60
2022-09-07T19:19:29.368Z,20.62
2022-09-07T19:21:55.691Z,20.64
2022-09-07T19:24:22.902Z,20.61
2022-09-07T19:26:49.223Z,20.57
2022-09-07T19:29:15.578Z,20.58
2022-09-07T19:31:42.052Z,20.57
2022-09-07T19:34:09.313Z,20.63
2022-09-07T19:36:35.731Z,20.80
2022-09-07T19:41:46.024Z,21.98
2022-09-07T19:44:12.397Z,23.22
2022-09-07T19:46:38.788Z,23.78
2022-09-07T19:49:05.199Z,23.83
2022-09-07T19:51:36.646Z,23.71
2022-09-07T19:56:47.092Z,23.63
2022-09-07T19:59:13.435Z,23.63
2022-09-07T20:01:39.775Z,23.45
2022-09-07T20:04:06.234Z,23.88
2022-09-07T20:06:32.670Z,23.60
2022-09-07T20:11:52.821Z,23.95
2022-09-07T20:14:19.240Z,23.65
2022-09-07T20:16:45.603Z,23.90
2022-09-07T20:19:11.981Z,23.44
2022-09-07T20:21:38.327Z,21.85
2022-09-07T20:26:48.556Z,21.27
2022-09-07T20:29:27.235Z,21.21
2022-09-07T20:31:54.518Z,21.34
2022-09-07T20:34:20.876Z,21.29
2022-09-07T20:36:47.192Z,21.15
2022-09-07T20:42:09.364Z,21.05
2022-09-07T20:44:35.712Z,20.85
2022-09-07T20:47:02.130Z,20.90
2022-09-07T20:49:28.522Z,20.87
2022-09-07T20:51:54.857Z,20.81
2022-09-07T20:57:05.171Z,20.79
2022-09-07T20:59:31.597Z,20.81
2022-09-07T21:01:57.955Z,20.78
2022-09-07T21:04:25.183Z,20.76
2022-09-07T21:06:51.538Z,20.71
2022-09-07T21:12:01.808Z,20.79
2022-09-07T21:14:28.111Z,20.70
2022-09-07T21:16:54.513Z,20.71
2022-09-07T21:19:20.857Z,20.71
2022-09-07T21:21:47.175Z,20.70
2022-09-07T21:27:07.618Z,20.65
2022-09-07T21:29:34.036Z,20.66
2022-09-07T21:32:00.367Z,20.53
2022-09-07T21:34:26.676Z,20.51
2022-09-07T21:36:53.008Z,20.51
2022-09-07T21:42:03.246Z,20.43
2022-09-07T21:44:29.597Z,20.35
2022-09-07T21:46:56.060Z,20.41
2022-09-07T21:49:22.472Z,20.37
2022-09-07T21:51:48.786Z,20.32
2022-09-07T21:57:11.010Z,20.53
2022-09-07T21:59:37.423Z,20.55
2022-09-07T22:02:03.821Z,20.55
2022-09-07T22:04:30.270Z,20.49
2022-09-07T22:06:56.587Z,20.54
2022-09-07T22:12:16.679Z,20.56
2022-09-07T22:14:43.064Z,20.57
2022-09-07T22:17:10.266Z,20.48
2022-09-07T22:19:36.581Z,20.39
2022-09-07T22:22:02.920Z,20.33
2022-09-07T22:27:13.397Z,20.35
2022-09-07T22:29:39.718Z,20.32
2022-09-07T22:32:06.115Z,20.33
2022-09-07T22:34:32.449Z,20.29
2022-09-07T22:36:58.787Z,20.28
2022-09-07T22:42:19.757Z,20.28
2022-09-07T22:44:46.103Z,20.19
2022-09-07T22:47:12.427Z,20.13
2022-09-07T22:49:38.771Z,20.27
2022-09-07T22:52:05.127Z,20.24
2022-09-07T22:57:25.425Z,20.22
2022-09-07T22:59:51.790Z,20.29
2022-09-07T23:02:18.132Z,20.29
2022-09-07T23:04:44.586Z,20.30
2022-09-07T23:07:11.882Z,20.23
2022-09-07T23:12:22.065Z,20.22
2022-09-07T23:14:48.384Z,20.12
2022-09-07T23:17:14.735Z,20.11
2022-09-07T23:19:41.059Z,20.09
2022-09-07T23:22:07.435Z,20.11
2022-09-07T23:27:27.750Z,20.04
2022-09-07T23:29:54.080Z,20.10
2022-09-07T23:32:21.275Z,20.09
2022-09-07T23:34:47.707Z,20.03
2022-09-07T23:37:14.916Z,20.07
2022-09-07T23:42:24.995Z,20.04
2022-09-07T23:44:51.341Z,19.88
2022-09-07T23:47:17.666Z,19.93
2022-09-07T23:49:43.987Z,19.86
2022-09-07T23:52:11.194Z,19.87
2022-09-07T23:57:31.192Z,19.89
2022-09-07T23:59:57.590Z,19.80
